createdAt,value
2019-05-25T00:05:21.018Z,58.85
2019-05-25T00:10:44.100Z,59.01
2019-05-25T00:16:05.787Z,58.99
2019-05-25T00:21:29.451Z,60.57
2019-05-25T00:26:51.210Z,59.11
2019-05-25T00:32:14.468Z,59.42
2019-05-25T00:37:36.257Z,59.66
2019-05-25T00:42:59.638Z,58.60
2019-05-25T00:48:21.389Z,59.07
2019-05-25T00:53:44.697Z,58.94
2019-05-25T00:59:07.984Z,59.63
2019-05-25T01:04:31.679Z,60.29
2019-05-25T01:09:55.307Z,59.87
2019-05-25T01:15:18.747Z,59.67
2019-05-25T01:20:42.375Z,61.20
2019-05-25T01:26:04.051Z,60.87
2019-05-25T01:31:26.949Z,60.32
2019-05-25T01:36:42.429Z,60.41
2019-05-25T01:42:05.633Z,62.67
2019-05-25T01:47:27.327Z,61.47
2019-05-25T01:52:50.621Z,61.23
2019-05-25T01:58:12.323Z,61.32
2019-05-25T02:03:35.595Z,62.55
2019-05-25T02:08:57.393Z,61.92
2019-05-25T02:14:20.630Z,62.13
2019-05-25T02:19:42.369Z,62.75
2019-05-25T02:25:17.147Z,62.95
2019-05-25T02:30:32.109Z,62.60
2019-05-25T02:35:55.430Z,62.90
2019-05-25T02:41:17.190Z,63.02
2019-05-25T02:46:40.434Z,63.28
2019-05-25T02:52:02.132Z,63.26
2019-05-25T02:57:25.397Z,63.80
2019-05-25T03:02:47.548Z,64.13
2019-05-25T03:08:11.718Z,65.35
2019-05-25T03:13:35.685Z,64.99
2019-05-25T03:18:57.372Z,64.26
2019-05-25T03:24:20.628Z,65.09
2019-05-25T03:29:42.443Z,64.79
2019-05-25T03:35:05.767Z,64.56
2019-05-25T03:40:27.694Z,64.49
2019-05-25T03:45:51.879Z,63.95
2019-05-25T03:51:13.659Z,63.79
2019-05-25T03:56:37.297Z,63.86
2019-05-25T04:01:59.050Z,63.85
2019-05-25T04:07:21.756Z,64.04
2019-05-25T04:12:43.470Z,64.07
2019-05-25T04:18:06.744Z,63.69
2019-05-25T04:23:28.567Z,64.26
2019-05-25T04:28:51.859Z,64.40
2019-05-25T04:34:13.553Z,65.56
2019-05-25T04:39:36.798Z,65.05
2019-05-25T04:44:58.488Z,65.48
2019-05-25T04:50:23.673Z,66.03
2019-05-25T04:55:45.865Z,65.12
2019-05-25T05:01:09.145Z,65.80
2019-05-25T05:06:30.919Z,64.78
2019-05-25T05:11:54.557Z,65.64
2019-05-25T05:17:16.307Z,64.17
2019-05-25T05:22:39.687Z,63.47
2019-05-25T05:27:55.365Z,63.83
2019-05-25T05:33:18.650Z,62.66
2019-05-25T05:38:42.083Z,62.07
2019-05-25T05:43:59.557Z,62.08
2019-05-25T05:49:23.544Z,61.86
2019-05-25T05:54:45.809Z,62.20
2019-05-25T06:00:10.877Z,62.20
2019-05-25T06:05:33.389Z,62.66
2019-05-25T06:10:56.656Z,61.82
2019-05-25T06:16:18.397Z,61.49
2019-05-25T06:21:41.969Z,61.95
2019-05-25T06:26:57.449Z,62.28
2019-05-25T06:32:20.665Z,62.07
2019-05-25T06:37:42.462Z,61.61
2019-05-25T06:43:05.828Z,61.85
2019-05-25T06:48:27.514Z,62.02
2019-05-25T06:53:51.021Z,61.05
2019-05-25T06:59:12.693Z,61.22
2019-05-25T07:04:36.227Z,59.25
2019-05-25T07:09:51.716Z,58.62
2019-05-25T07:15:15.821Z,59.31
2019-05-25T07:20:37.782Z,57.82
2019-05-25T07:26:01.215Z,58.83
2019-05-25T07:31:16.720Z,58.15
2019-05-25T07:36:40.506Z,57.86
2019-05-25T07:42:02.262Z,56.67
2019-05-25T07:47:25.632Z,55.94
2019-05-25T07:52:41.237Z,55.00
2019-05-25T07:58:16.435Z,54.62
2019-05-25T08:03:29.528Z,53.53
2019-05-25T08:08:45.076Z,53.19
2019-05-25T08:14:09.361Z,53.59
2019-05-25T08:27:08.855Z,47.39
2019-05-25T08:32:30.595Z,49.48
2019-05-25T08:37:53.843Z,50.18
2019-05-25T08:43:15.560Z,49.18
2019-05-25T08:48:38.864Z,50.52
2019-05-25T08:54:00.771Z,50.11
2019-05-25T08:59:24.062Z,51.28
2019-05-25T09:04:45.772Z,49.97
2019-05-25T09:10:10.135Z,48.00
2019-05-25T09:15:32.429Z,49.02
2019-05-25T09:20:55.703Z,50.29
2019-05-25T09:26:19.022Z,50.31
2019-05-25T09:31:40.809Z,50.41
2019-05-25T09:37:03.915Z,50.16
2019-05-25T09:42:25.656Z,49.41
2019-05-25T09:47:48.944Z,47.14
2019-05-25T09:53:10.697Z,46.95
2019-05-25T09:58:33.951Z,49.30
2019-05-25T10:03:56.770Z,48.84
2019-05-25T10:09:20.013Z,51.87
2019-05-25T10:14:41.705Z,52.29
2019-05-25T10:20:03.469Z,51.15
2019-05-25T10:25:28.222Z,49.68
2019-05-25T10:30:49.955Z,48.44
2019-05-25T10:36:12.962Z,47.06
2019-05-25T10:41:34.685Z,47.53
2019-05-25T10:46:56.361Z,46.31
2019-05-25T10:52:18.203Z,45.61
2019-05-25T10:57:39.958Z,46.26
2019-05-25T11:03:01.727Z,45.98
2019-05-25T11:08:23.542Z,43.60
2019-05-25T11:13:45.310Z,43.86
2019-05-25T11:19:07.119Z,44.29
2019-05-25T11:24:28.815Z,43.60
2019-05-25T11:30:07.596Z,44.06
2019-05-25T11:35:16.637Z,42.13
2019-05-25T11:40:38.879Z,45.75
2019-05-25T11:46:00.653Z,45.06
2019-05-25T11:51:22.543Z,44.66
2019-05-25T11:56:44.252Z,44.26
2019-05-25T12:02:06.168Z,43.22
2019-05-25T12:07:28.253Z,40.56
2019-05-25T12:12:50.400Z,41.71
2019-05-25T12:18:12.122Z,39.01
2019-05-25T12:23:33.847Z,42.23
2019-05-25T12:28:55.619Z,42.14
2019-05-25T12:34:17.411Z,41.18
2019-05-25T12:39:39.318Z,40.90
2019-05-25T12:45:01.029Z,40.54
2019-05-25T12:50:23.835Z,38.37
2019-05-25T12:55:45.646Z,39.85
2019-05-25T13:01:07.376Z,40.89
2019-05-25T13:06:29.155Z,39.17
2019-05-25T13:11:50.886Z,40.18
2019-05-25T13:17:12.627Z,40.38
2019-05-25T13:22:34.394Z,40.30
2019-05-25T13:27:56.125Z,37.73
2019-05-25T13:33:17.869Z,36.42
2019-05-25T13:38:39.574Z,35.68
2019-05-25T13:44:01.328Z,37.17
2019-05-25T13:49:23.847Z,35.73
2019-05-25T13:54:45.739Z,34.70
2019-05-25T14:00:07.509Z,33.88
2019-05-25T14:05:29.894Z,32.92
2019-05-25T14:10:51.613Z,34.96
2019-05-25T14:16:13.351Z,33.33
2019-05-25T14:21:35.428Z,31.28
2019-05-25T14:26:57.135Z,31.62
2019-05-25T14:32:18.859Z,33.48
2019-05-25T14:37:40.631Z,35.71
2019-05-25T14:43:02.369Z,34.70
2019-05-25T14:48:24.238Z,34.38
2019-05-25T14:53:45.942Z,35.73
2019-05-25T14:59:07.651Z,35.39
2019-05-25T15:04:29.382Z,36.18
2019-05-25T15:09:51.075Z,34.89
2019-05-25T15:15:13.346Z,35.64
2019-05-25T15:20:35.130Z,36.92
2019-05-25T15:25:56.879Z,37.98
2019-05-25T15:31:18.620Z,35.96
2019-05-25T15:36:40.396Z,37.71
2019-05-25T15:42:02.164Z,38.61
2019-05-25T15:47:23.973Z,33.99
2019-05-25T15:52:45.797Z,33.37
2019-05-25T15:58:07.635Z,32.99
2019-05-25T16:03:31.656Z,35.04
2019-05-25T16:08:53.483Z,34.50
2019-05-25T16:14:15.218Z,38.67
2019-05-25T16:19:37.064Z,37.82
2019-05-25T16:24:58.907Z,34.33
2019-05-25T16:30:20.786Z,34.36
2019-05-25T16:35:42.550Z,35.93
2019-05-25T16:41:05.768Z,38.93
2019-05-25T16:46:30.079Z,40.28
2019-05-25T16:51:52.507Z,40.26
2019-05-25T16:57:14.485Z,39.03
2019-05-25T17:02:37.865Z,40.08
2019-05-25T17:08:00.050Z,41.28
2019-05-25T17:13:21.859Z,38.59
2019-05-25T17:18:46.655Z,37.86
2019-05-25T17:24:08.366Z,39.50
2019-05-25T17:29:32.022Z,39.98
2019-05-25T17:34:55.488Z,40.68
2019-05-25T17:40:18.337Z,42.26
2019-05-25T17:45:42.922Z,41.60
2019-05-25T17:51:07.586Z,41.36
2019-05-25T17:56:29.332Z,41.20
2019-05-25T18:01:52.713Z,41.20
2019-05-25T18:07:16.515Z,41.23
2019-05-25T18:12:41.866Z,42.09
2019-05-25T18:18:07.002Z,43.69
2019-05-25T18:23:30.960Z,44.13
2019-05-25T18:28:54.452Z,44.74
2019-05-25T18:34:22.433Z,46.27
2019-05-25T18:39:45.736Z,46.66
2019-05-25T18:45:09.518Z,47.61
2019-05-25T18:50:33.615Z,47.67
2019-05-25T18:55:56.534Z,49.50
2019-05-25T19:01:20.907Z,49.60
2019-05-25T19:06:44.967Z,49.11
2019-05-25T19:12:08.176Z,49.37
2019-05-25T19:17:31.958Z,51.21
2019-05-25T19:22:55.769Z,49.74
2019-05-25T19:28:18.940Z,49.57
2019-05-25T19:33:46.669Z,50.48
2019-05-25T19:39:08.374Z,50.76
2019-05-25T19:44:32.470Z,50.85
2019-05-25T19:49:55.926Z,51.02
2019-05-25T19:55:21.357Z,51.84
2019-05-25T20:00:43.693Z,52.45
2019-05-25T20:06:06.071Z,53.58
2019-05-25T20:11:29.413Z,53.68
2019-05-25T20:16:53.800Z,53.42
2019-05-25T20:22:18.089Z,53.52
2019-05-25T20:27:42.197Z,54.24
2019-05-25T20:33:06.299Z,54.36
2019-05-25T20:38:29.645Z,54.01
2019-05-25T20:43:53.590Z,56.00
2019-05-25T20:49:17.292Z,56.07
2019-05-25T20:54:40.641Z,56.39
2019-05-25T21:00:02.600Z,55.94
2019-05-25T21:05:25.750Z,56.17
2019-05-25T21:10:49.007Z,56.71
2019-05-25T21:16:13.264Z,57.15
2019-05-25T21:21:37.339Z,56.63
2019-05-25T21:27:00.934Z,57.78
2019-05-25T21:32:24.929Z,57.61
2019-05-25T21:37:49.026Z,57.70
2019-05-25T21:43:11.873Z,57.94
2019-05-25T21:48:35.388Z,58.03
2019-05-25T21:53:58.926Z,58.30
2019-05-25T21:59:22.691Z,58.86
2019-05-25T22:04:46.798Z,59.36
2019-05-25T22:10:09.971Z,58.79
2019-05-25T22:15:34.043Z,59.39
2019-05-25T22:20:58.252Z,59.17
2019-05-25T22:26:22.269Z,59.23
2019-05-25T22:31:46.381Z,60.02
2019-05-25T22:37:10.481Z,59.20
2019-05-25T22:42:34.250Z,59.65
2019-05-25T22:47:58.375Z,60.03
2019-05-25T22:53:21.839Z,60.00
2019-05-25T22:58:45.933Z,60.07
2019-05-25T23:04:09.721Z,60.35
2019-05-25T23:09:33.518Z,61.58
2019-05-25T23:14:57.622Z,62.30
2019-05-25T23:20:21.720Z,62.47
2019-05-25T23:25:45.818Z,61.73
2019-05-25T23:31:08.693Z,61.12
2019-05-25T23:36:32.795Z,60.98
2019-05-25T23:41:56.896Z,60.97
2019-05-25T23:47:21.050Z,60.97
2019-05-25T23:52:51.027Z,61.59
2019-05-25T23:58:14.727Z,61.75
